sensor_id;sensor_type;location;lat;lon;timestamp;P1;durP1;ratioP1;P2;durP2;ratioP2
37288;SDS011;23174;49.462;11.000;2023-09-19T00:01:54;1.42;;;0.70;;
37288;SDS011;23174;49.462;11.000;2023-09-19T00:03:56;0.60;;;0.60;;
37288;SDS011;23174;49.462;11.000;2023-09-19T00:05:58;0.55;;;0.43;;
37288;SDS011;23174;49.462;11.000;2023-09-19T00:08:00;0.55;;;0.35;;
37288;SDS011;23174;49.462;11.000;2023-09-19T00:10:04;0.45;;;0.45;;
37288;SDS011;23174;49.462;11.000;2023-09-19T00:12:05;2.80;;;0.80;;
37288;SDS011;23174;49.462;11.000;2023-09-19T00:14:06;1.77;;;0.47;;
37288;SDS011;23174;49.462;11.000;2023-09-19T00:16:09;0.60;;;0.60;;
37288;SDS011;23174;49.462;11.000;2023-09-19T00:18:10;1.15;;;0.93;;
37288;SDS011;23174;49.462;11.000;2023-09-19T00:20:11;0.70;;;0.70;;
37288;SDS011;23174;49.462;11.000;2023-09-19T00:22:13;1.85;;;1.17;;
37288;SDS011;23174;49.462;11.000;2023-09-19T00:24:15;0.85;;;0.60;;
37288;SDS011;23174;49.462;11.000;2023-09-19T00:26:17;1.23;;;0.57;;
37288;SDS011;23174;49.462;11.000;2023-09-19T00:28:18;2.28;;;0.90;;
37288;SDS011;23174;49.462;11.000;2023-09-19T00:30:19;1.15;;;0.60;;
37288;SDS011;23174;49.462;11.000;2023-09-19T00:32:20;1.40;;;0.70;;
37288;SDS011;23174;49.462;11.000;2023-09-19T00:34:21;0.98;;;0.85;;
37288;SDS011;23174;49.462;11.000;2023-09-19T00:36:21;0.77;;;0.70;;
37288;SDS011;23174;49.462;11.000;2023-09-19T00:38:23;2.60;;;0.70;;
37288;SDS011;23174;49.462;11.000;2023-09-19T00:40:26;0.52;;;0.52;;
37288;SDS011;23174;49.462;11.000;2023-09-19T00:42:27;1.48;;;0.77;;
37288;SDS011;23174;49.462;11.000;2023-09-19T00:44:28;0.95;;;0.70;;
37288;SDS011;23174;49.462;11.000;2023-09-19T00:46:28;4.10;;;0.80;;
37288;SDS011;23174;49.462;11.000;2023-09-19T00:48:30;0.95;;;0.70;;
37288;SDS011;23174;49.462;11.000;2023-09-19T00:50:31;1.52;;;0.63;;
37288;SDS011;23174;49.462;11.000;2023-09-19T00:52:32;3.10;;;0.82;;
37288;SDS011;23174;49.462;11.000;2023-09-19T00:54:33;0.70;;;0.70;;
37288;SDS011;23174;49.462;11.000;2023-09-19T00:56:35;3.92;;;1.00;;
37288;SDS011;23174;49.462;11.000;2023-09-19T00:58:38;0.38;;;0.38;;
37288;SDS011;23174;49.462;11.000;2023-09-19T01:00:38;2.70;;;0.70;;
37288;SDS011;23174;49.462;11.000;2023-09-19T01:02:43;1.10;;;0.60;;
37288;SDS011;23174;49.462;11.000;2023-09-19T01:04:44;0.68;;;0.50;;
37288;SDS011;23174;49.462;11.000;2023-09-19T01:06:45;2.40;;;0.73;;
37288;SDS011;23174;49.462;11.000;2023-09-19T01:08:46;0.70;;;0.65;;
37288;SDS011;23174;49.462;11.000;2023-09-19T01:10:51;0.73;;;0.73;;
37288;SDS011;23174;49.462;11.000;2023-09-19T01:12:59;6.35;;;0.70;;
37288;SDS011;23174;49.462;11.000;2023-09-19T01:17:46;1.30;;;0.73;;
37288;SDS011;23174;49.462;11.000;2023-09-19T01:20:03;1.15;;;1.00;;
37288;SDS011;23174;49.462;11.000;2023-09-19T01:22:18;0.38;;;0.32;;
37288;SDS011;23174;49.462;11.000;2023-09-19T01:29:38;0.70;;;0.60;;
37288;SDS011;23174;49.462;11.000;2023-09-19T01:31:44;0.77;;;0.63;;
37288;SDS011;23174;49.462;11.000;2023-09-19T01:33:55;0.77;;;0.63;;
37288;SDS011;23174;49.462;11.000;2023-09-19T01:35:59;3.50;;;0.90;;
37288;SDS011;23174;49.462;11.000;2023-09-19T01:37:59;1.30;;;0.70;;
37288;SDS011;23174;49.462;11.000;2023-09-19T01:40:01;1.85;;;0.70;;
37288;SDS011;23174;49.462;11.000;2023-09-19T01:42:13;0.80;;;0.80;;
37288;SDS011;23174;49.462;11.000;2023-09-19T01:44:29;2.28;;;0.75;;
37288;SDS011;23174;49.462;11.000;2023-09-19T01:46:40;2.25;;;0.80;;
37288;SDS011;23174;49.462;11.000;2023-09-19T01:48:43;0.45;;;0.45;;
37288;SDS011;23174;49.462;11.000;2023-09-19T01:50:55;1.17;;;0.88;;
37288;SDS011;23174;49.462;11.000;2023-09-19T01:53:07;1.40;;;0.60;;
37288;SDS011;23174;49.462;11.000;2023-09-19T01:55:15;1.35;;;0.60;;
37288;SDS011;23174;49.462;11.000;2023-09-19T01:57:22;1.13;;;1.02;;
37288;SDS011;23174;49.462;11.000;2023-09-19T01:59:34;1.35;;;0.57;;
37288;SDS011;23174;49.462;11.000;2023-09-19T02:01:41;4.05;;;1.00;;
37288;SDS011;23174;49.462;11.000;2023-09-19T02:03:45;4.18;;;0.93;;
37288;SDS011;23174;49.462;11.000;2023-09-19T02:05:49;3.42;;;0.85;;
37288;SDS011;23174;49.462;11.000;2023-09-19T02:07:51;1.50;;;0.70;;
37288;SDS011;23174;49.462;11.000;2023-09-19T02:09:53;1.35;;;0.80;;
37288;SDS011;23174;49.462;11.000;2023-09-19T02:11:55;0.50;;;0.50;;
37288;SDS011;23174;49.462;11.000;2023-09-19T02:13:55;2.05;;;0.60;;
37288;SDS011;23174;49.462;11.000;2023-09-19T02:15:56;1.95;;;1.38;;
37288;SDS011;23174;49.462;11.000;2023-09-19T02:17:57;2.70;;;1.25;;
37288;SDS011;23174;49.462;11.000;2023-09-19T02:19:59;1.10;;;0.60;;
37288;SDS011;23174;49.462;11.000;2023-09-19T02:22:00;0.80;;;0.55;;
37288;SDS011;23174;49.462;11.000;2023-09-19T02:24:07;0.68;;;0.35;;
37288;SDS011;23174;49.462;11.000;2023-09-19T02:26:10;0.43;;;0.43;;
37288;SDS011;23174;49.462;11.000;2023-09-19T02:28:12;2.80;;;0.98;;
37288;SDS011;23174;49.462;11.000;2023-09-19T02:30:12;0.93;;;0.52;;
37288;SDS011;23174;49.462;11.000;2023-09-19T02:32:15;0.57;;;0.45;;
37288;SDS011;23174;49.462;11.000;2023-09-19T02:34:18;2.40;;;0.80;;
37288;SDS011;23174;49.462;11.000;2023-09-19T02:36:19;1.45;;;0.68;;
37288;SDS011;23174;49.462;11.000;2023-09-19T02:38:19;2.58;;;0.40;;
37288;SDS011;23174;49.462;11.000;2023-09-19T02:40:24;0.60;;;0.50;;
37288;SDS011;23174;49.462;11.000;2023-09-19T02:42:26;2.15;;;0.60;;
37288;SDS011;23174;49.462;11.000;2023-09-19T02:44:26;0.52;;;0.47;;
37288;SDS011;23174;49.462;11.000;2023-09-19T02:46:27;2.75;;;1.17;;
37288;SDS011;23174;49.462;11.000;2023-09-19T02:48:28;2.10;;;0.82;;
37288;SDS011;23174;49.462;11.000;2023-09-19T02:50:29;0.77;;;0.65;;
37288;SDS011;23174;49.462;11.000;2023-09-19T02:52:30;0.50;;;0.30;;
37288;SDS011;23174;49.462;11.000;2023-09-19T02:54:30;3.10;;;0.40;;
37288;SDS011;23174;49.462;11.000;2023-09-19T02:56:31;0.40;;;0.40;;
37288;SDS011;23174;49.462;11.000;2023-09-19T02:58:32;0.95;;;0.60;;
37288;SDS011;23174;49.462;11.000;2023-09-19T03:00:35;1.08;;;0.60;;
37288;SDS011;23174;49.462;11.000;2023-09-19T03:02:36;0.50;;;0.50;;
37288;SDS011;23174;49.462;11.000;2023-09-19T03:04:37;1.55;;;0.38;;
37288;SDS011;23174;49.462;11.000;2023-09-19T03:06:38;1.42;;;0.30;;
37288;SDS011;23174;49.462;11.000;2023-09-19T03:08:39;1.23;;;0.70;;
37288;SDS011;23174;49.462;11.000;2023-09-19T03:10:39;1.08;;;0.65;;
37288;SDS011;23174;49.462;11.000;2023-09-19T03:12:40;0.50;;;0.50;;
37288;SDS011;23174;49.462;11.000;2023-09-19T03:14:40;1.33;;;0.47;;
37288;SDS011;23174;49.462;11.000;2023-09-19T03:16:41;0.55;;;0.20;;
37288;SDS011;23174;49.462;11.000;2023-09-19T03:18:42;0.98;;;0.70;;
37288;SDS011;23174;49.462;11.000;2023-09-19T03:20:43;3.25;;;0.65;;
37288;SDS011;23174;49.462;11.000;2023-09-19T03:22:44;2.63;;;0.75;;
37288;SDS011;23174;49.462;11.000;2023-09-19T03:24:46;0.50;;;0.50;;
37288;SDS011;23174;49.462;11.000;2023-09-19T03:26:46;0.70;;;0.57;;
37288;SDS011;23174;49.462;11.000;2023-09-19T03:28:47;1.10;;;0.57;;
37288;SDS011;23174;49.462;11.000;2023-09-19T03:31:03;0.82;;;0.60;;
37288;SDS011;23174;49.462;11.000;2023-09-19T03:33:05;1.73;;;0.73;;
37288;SDS011;23174;49.462;11.000;2023-09-19T03:35:06;1.50;;;0.55;;
37288;SDS011;23174;49.462;11.000;2023-09-19T03:37:07;0.30;;;0.30;;
37288;SDS011;23174;49.462;11.000;2023-09-19T03:39:07;0.30;;;0.30;;
37288;SDS011;23174;49.462;11.000;2023-09-19T03:41:08;3.10;;;0.45;;
37288;SDS011;23174;49.462;11.000;2023-09-19T03:43:09;0.75;;;0.63;;
37288;SDS011;23174;49.462;11.000;2023-09-19T03:45:10;0.40;;;0.30;;
37288;SDS011;23174;49.462;11.000;2023-09-19T03:47:15;1.52;;;0.50;;
37288;SDS011;23174;49.462;11.000;2023-09-19T03:49:16;0.95;;;0.50;;
37288;SDS011;23174;49.462;11.000;2023-09-19T03:51:16;2.60;;;0.85;;
37288;SDS011;23174;49.462;11.000;2023-09-19T03:53:17;1.48;;;0.70;;
37288;SDS011;23174;49.462;11.000;2023-09-19T03:55:17;1.45;;;0.88;;
37288;SDS011;23174;49.462;11.000;2023-09-19T03:57:18;3.45;;;0.77;;
37288;SDS011;23174;49.462;11.000;2023-09-19T03:59:20;1.02;;;0.68;;
37288;SDS011;23174;49.462;11.000;2023-09-19T04:01:21;2.83;;;1.13;;
37288;SDS011;23174;49.462;11.000;2023-09-19T04:03:22;1.20;;;0.82;;
37288;SDS011;23174;49.462;11.000;2023-09-19T04:05:23;0.80;;;0.63;;
37288;SDS011;23174;49.462;11.000;2023-09-19T04:07:24;0.73;;;0.73;;
37288;SDS011;23174;49.462;11.000;2023-09-19T04:09:26;3.58;;;0.85;;
37288;SDS011;23174;49.462;11.000;2023-09-19T04:11:26;1.25;;;0.70;;
37288;SDS011;23174;49.462;11.000;2023-09-19T04:13:27;0.93;;;0.70;;
37288;SDS011;23174;49.462;11.000;2023-09-19T04:15:28;0.90;;;0.55;;
37288;SDS011;23174;49.462;11.000;2023-09-19T04:17:28;0.45;;;0.35;;
37288;SDS011;23174;49.462;11.000;2023-09-19T04:19:29;1.38;;;0.73;;
37288;SDS011;23174;49.462;11.000;2023-09-19T04:21:29;0.95;;;0.52;;
37288;SDS011;23174;49.462;11.000;2023-09-19T04:23:30;2.40;;;1.10;;
37288;SDS011;23174;49.462;11.000;2023-09-19T04:25:30;1.58;;;0.75;;
37288;SDS011;23174;49.462;11.000;2023-09-19T04:27:31;0.35;;;0.35;;
37288;SDS011;23174;49.462;11.000;2023-09-19T04:29:32;0.43;;;0.43;;
37288;SDS011;23174;49.462;11.000;2023-09-19T04:31:33;0.75;;;0.50;;
37288;SDS011;23174;49.462;11.000;2023-09-19T04:33:35;0.32;;;0.30;;
37288;SDS011;23174;49.462;11.000;2023-09-19T04:35:35;1.40;;;0.85;;
37288;SDS011;23174;49.462;11.000;2023-09-19T04:37:36;0.52;;;0.47;;
37288;SDS011;23174;49.462;11.000;2023-09-19T04:39:41;0.80;;;0.80;;
37288;SDS011;23174;49.462;11.000;2023-09-19T04:41:41;0.88;;;0.68;;
37288;SDS011;23174;49.462;11.000;2023-09-19T04:43:42;0.32;;;0.32;;
37288;SDS011;23174;49.462;11.000;2023-09-19T04:45:42;1.73;;;0.57;;
37288;SDS011;23174;49.462;11.000;2023-09-19T04:47:43;0.30;;;0.17;;
37288;SDS011;23174;49.462;11.000;2023-09-19T04:49:44;0.82;;;0.65;;
37288;SDS011;23174;49.462;11.000;2023-09-19T04:51:45;0.47;;;0.30;;
37288;SDS011;23174;49.462;11.000;2023-09-19T04:53:47;0.90;;;0.35;;
37288;SDS011;23174;49.462;11.000;2023-09-19T04:55:51;4.03;;;0.80;;
37288;SDS011;23174;49.462;11.000;2023-09-19T04:57:55;1.52;;;0.77;;
37288;SDS011;23174;49.462;11.000;2023-09-19T04:59:56;4.10;;;0.80;;
37288;SDS011;23174;49.462;11.000;2023-09-19T05:01:57;0.50;;;0.40;;
37288;SDS011;23174;49.462;11.000;2023-09-19T05:03:58;0.65;;;0.63;;
37288;SDS011;23174;49.462;11.000;2023-09-19T05:05:59;0.52;;;0.52;;
37288;SDS011;23174;49.462;11.000;2023-09-19T05:07:59;0.55;;;0.32;;
37288;SDS011;23174;49.462;11.000;2023-09-19T05:10:00;1.15;;;0.60;;
37288;SDS011;23174;49.462;11.000;2023-09-19T05:12:01;0.75;;;0.55;;
37288;SDS011;23174;49.462;11.000;2023-09-19T05:14:01;1.30;;;0.50;;
37288;SDS011;23174;49.462;11.000;2023-09-19T05:16:03;4.65;;;0.47;;
37288;SDS011;23174;49.462;11.000;2023-09-19T05:18:04;0.55;;;0.43;;
37288;SDS011;23174;49.462;11.000;2023-09-19T05:20:06;1.17;;;0.70;;
37288;SDS011;23174;49.462;11.000;2023-09-19T05:22:26;1.98;;;0.35;;
37288;SDS011;23174;49.462;11.000;2023-09-19T05:24:27;1.02;;;0.43;;
37288;SDS011;23174;49.462;11.000;2023-09-19T05:26:27;0.22;;;0.22;;
37288;SDS011;23174;49.462;11.000;2023-09-19T05:28:28;1.33;;;0.65;;
37288;SDS011;23174;49.462;11.000;2023-09-19T05:30:29;0.10;;;0.10;;
37288;SDS011;23174;49.462;11.000;2023-09-19T05:32:30;1.63;;;1.25;;
37288;SDS011;23174;49.462;11.000;2023-09-19T05:34:30;0.63;;;0.47;;
37288;SDS011;23174;49.462;11.000;2023-09-19T05:36:30;1.65;;;1.08;;
37288;SDS011;23174;49.462;11.000;2023-09-19T05:38:31;2.45;;;0.77;;
37288;SDS011;23174;49.462;11.000;2023-09-19T05:40:32;2.13;;;0.80;;
37288;SDS011;23174;49.462;11.000;2023-09-19T05:42:33;1.15;;;0.98;;
37288;SDS011;23174;49.462;11.000;2023-09-19T05:44:33;1.38;;;0.90;;
37288;SDS011;23174;49.462;11.000;2023-09-19T05:46:34;1.23;;;0.85;;
37288;SDS011;23174;49.462;11.000;2023-09-19T05:48:34;0.95;;;0.60;;
37288;SDS011;23174;49.462;11.000;2023-09-19T05:50:35;0.73;;;0.47;;
37288;SDS011;23174;49.462;11.000;2023-09-19T05:52:37;0.80;;;0.60;;
37288;SDS011;23174;49.462;11.000;2023-09-19T05:54:38;1.50;;;0.95;;
37288;SDS011;23174;49.462;11.000;2023-09-19T05:56:38;3.42;;;0.77;;
37288;SDS011;23174;49.462;11.000;2023-09-19T05:58:39;0.90;;;0.75;;
37288;SDS011;23174;49.462;11.000;2023-09-19T06:00:40;1.85;;;0.88;;
37288;SDS011;23174;49.462;11.000;2023-09-19T06:02:43;1.35;;;0.60;;
37288;SDS011;23174;49.462;11.000;2023-09-19T06:04:44;1.35;;;0.57;;
37288;SDS011;23174;49.462;11.000;2023-09-19T06:06:45;0.93;;;0.75;;
37288;SDS011;23174;49.462;11.000;2023-09-19T06:08:48;1.40;;;0.95;;
37288;SDS011;23174;49.462;11.000;2023-09-19T06:10:50;0.52;;;0.52;;
37288;SDS011;23174;49.462;11.000;2023-09-19T06:12:52;3.42;;;0.85;;
37288;SDS011;23174;49.462;11.000;2023-09-19T06:14:53;0.85;;;0.40;;
37288;SDS011;23174;49.462;11.000;2023-09-19T06:16:54;0.30;;;0.30;;
37288;SDS011;23174;49.462;11.000;2023-09-19T06:18:54;1.23;;;0.60;;
37288;SDS011;23174;49.462;11.000;2023-09-19T06:20:55;1.60;;;0.88;;
37288;SDS011;23174;49.462;11.000;2023-09-19T06:22:57;0.50;;;0.50;;
37288;SDS011;23174;49.462;11.000;2023-09-19T06:24:58;0.82;;;0.73;;
37288;SDS011;23174;49.462;11.000;2023-09-19T06:26:58;0.90;;;0.90;;
37288;SDS011;23174;49.462;11.000;2023-09-19T06:29:01;1.17;;;0.80;;
37288;SDS011;23174;49.462;11.000;2023-09-19T06:31:07;2.05;;;0.65;;
37288;SDS011;23174;49.462;11.000;2023-09-19T06:33:09;0.40;;;0.40;;
37288;SDS011;23174;49.462;11.000;2023-09-19T06:35:13;3.35;;;0.85;;
37288;SDS011;23174;49.462;11.000;2023-09-19T06:37:15;0.55;;;0.30;;
37288;SDS011;23174;49.462;11.000;2023-09-19T06:39:15;0.28;;;0.22;;
37288;SDS011;23174;49.462;11.000;2023-09-19T06:41:17;2.15;;;0.60;;
37288;SDS011;23174;49.462;11.000;2023-09-19T06:43:18;1.73;;;0.57;;
37288;SDS011;23174;49.462;11.000;2023-09-19T06:45:18;0.45;;;0.40;;
37288;SDS011;23174;49.462;11.000;2023-09-19T06:47:19;0.03;;;0.03;;
37288;SDS011;23174;49.462;11.000;2023-09-19T06:49:20;0.30;;;0.30;;
37288;SDS011;23174;49.462;11.000;2023-09-19T06:51:20;0.73;;;0.55;;
37288;SDS011;23174;49.462;11.000;2023-09-19T06:53:21;1.58;;;0.40;;
37288;SDS011;23174;49.462;11.000;2023-09-19T06:55:23;0.10;;;0.10;;
37288;SDS011;23174;49.462;11.000;2023-09-19T06:57:25;1.52;;;1.00;;
37288;SDS011;23174;49.462;11.000;2023-09-19T06:59:25;0.40;;;0.40;;
37288;SDS011;23174;49.462;11.000;2023-09-19T07:01:26;1.02;;;0.20;;
37288;SDS011;23174;49.462;11.000;2023-09-19T07:03:27;0.50;;;0.30;;
37288;SDS011;23174;49.462;11.000;2023-09-19T07:05:28;0.47;;;0.47;;
37288;SDS011;23174;49.462;11.000;2023-09-19T07:07:31;0.20;;;0.20;;
37288;SDS011;23174;49.462;11.000;2023-09-19T07:09:34;0.30;;;0.30;;
37288;SDS011;23174;49.462;11.000;2023-09-19T07:11:35;0.98;;;0.40;;
37288;SDS011;23174;49.462;11.000;2023-09-19T07:13:37;0.38;;;0.38;;
37288;SDS011;23174;49.462;11.000;2023-09-19T07:15:38;1.67;;;0.50;;
37288;SDS011;23174;49.462;11.000;2023-09-19T07:17:41;0.30;;;0.30;;
37288;SDS011;23174;49.462;11.000;2023-09-19T07:19:41;0.00;;;0.00;;
37288;SDS011;23174;49.462;11.000;2023-09-19T07:21:42;3.22;;;0.45;;
37288;SDS011;23174;49.462;11.000;2023-09-19T07:23:42;0.68;;;0.68;;
37288;SDS011;23174;49.462;11.000;2023-09-19T07:25:43;1.35;;;0.75;;
37288;SDS011;23174;49.462;11.000;2023-09-19T07:27:44;0.88;;;0.80;;
37288;SDS011;23174;49.462;11.000;2023-09-19T07:29:45;1.27;;;0.50;;
37288;SDS011;23174;49.462;11.000;2023-09-19T07:31:45;1.25;;;0.55;;
37288;SDS011;23174;49.462;11.000;2023-09-19T07:33:47;0.93;;;0.70;;
37288;SDS011;23174;49.462;11.000;2023-09-19T07:35:47;0.47;;;0.25;;
37288;SDS011;23174;49.462;11.000;2023-09-19T07:37:48;4.63;;;0.85;;
37288;SDS011;23174;49.462;11.000;2023-09-19T07:39:49;1.38;;;0.73;;
37288;SDS011;23174;49.462;11.000;2023-09-19T07:41:50;0.75;;;0.47;;
37288;SDS011;23174;49.462;11.000;2023-09-19T07:43:51;0.60;;;0.47;;
37288;SDS011;23174;49.462;11.000;2023-09-19T07:45:52;0.30;;;0.30;;
37288;SDS011;23174;49.462;11.000;2023-09-19T07:47:53;0.73;;;0.50;;
37288;SDS011;23174;49.462;11.000;2023-09-19T07:49:53;0.52;;;0.50;;
37288;SDS011;23174;49.462;11.000;2023-09-19T07:51:55;0.32;;;0.32;;
37288;SDS011;23174;49.462;11.000;2023-09-19T07:53:57;2.40;;;1.05;;
37288;SDS011;23174;49.462;11.000;2023-09-19T07:56:02;0.70;;;0.70;;
37288;SDS011;23174;49.462;11.000;2023-09-19T07:58:05;0.20;;;0.20;;
37288;SDS011;23174;49.462;11.000;2023-09-19T08:00:07;1.13;;;0.70;;
37288;SDS011;23174;49.462;11.000;2023-09-19T08:02:08;0.70;;;0.50;;
37288;SDS011;23174;49.462;11.000;2023-09-19T08:04:15;2.45;;;1.60;;
37288;SDS011;23174;49.462;11.000;2023-09-19T08:06:16;2.50;;;1.33;;
37288;SDS011;23174;49.462;11.000;2023-09-19T08:08:19;2.45;;;1.65;;
37288;SDS011;23174;49.462;11.000;2023-09-19T08:10:21;1.65;;;1.13;;
37288;SDS011;23174;49.462;11.000;2023-09-19T08:12:22;2.53;;;1.40;;
37288;SDS011;23174;49.462;11.000;2023-09-19T08:14:22;2.15;;;1.05;;
37288;SDS011;23174;49.462;11.000;2023-09-19T08:16:24;8.38;;;1.40;;
37288;SDS011;23174;49.462;11.000;2023-09-19T08:18:25;1.67;;;1.45;;
37288;SDS011;23174;49.462;11.000;2023-09-19T08:20:26;2.40;;;1.20;;
37288;SDS011;23174;49.462;11.000;2023-09-19T08:22:27;1.80;;;1.15;;
37288;SDS011;23174;49.462;11.000;2023-09-19T08:24:28;3.40;;;1.10;;
37288;SDS011;23174;49.462;11.000;2023-09-19T08:26:29;3.70;;;1.50;;
37288;SDS011;23174;49.462;11.000;2023-09-19T08:28:29;2.17;;;1.33;;
37288;SDS011;23174;49.462;11.000;2023-09-19T08:30:30;2.80;;;1.50;;
37288;SDS011;23174;49.462;11.000;2023-09-19T08:32:30;5.43;;;1.17;;
37288;SDS011;23174;49.462;11.000;2023-09-19T08:34:31;1.20;;;1.05;;
37288;SDS011;23174;49.462;11.000;2023-09-19T08:36:33;2.00;;;1.20;;
37288;SDS011;23174;49.462;11.000;2023-09-19T08:38:35;2.55;;;1.27;;
37288;SDS011;23174;49.462;11.000;2023-09-19T08:40:37;2.25;;;1.20;;
37288;SDS011;23174;49.462;11.000;2023-09-19T08:42:49;6.05;;;1.30;;
37288;SDS011;23174;49.462;11.000;2023-09-19T08:44:55;2.15;;;1.27;;
37288;SDS011;23174;49.462;11.000;2023-09-19T08:47:08;2.08;;;1.17;;
37288;SDS011;23174;49.462;11.000;2023-09-19T08:49:21;1.52;;;1.13;;
37288;SDS011;23174;49.462;11.000;2023-09-19T08:51:41;2.35;;;1.17;;
37288;SDS011;23174;49.462;11.000;2023-09-19T08:56:13;1.30;;;0.98;;
37288;SDS011;23174;49.462;11.000;2023-09-19T08:58:17;2.17;;;1.20;;
37288;SDS011;23174;49.462;11.000;2023-09-19T09:00:21;1.42;;;1.10;;
37288;SDS011;23174;49.462;11.000;2023-09-19T09:02:22;1.20;;;1.10;;
37288;SDS011;23174;49.462;11.000;2023-09-19T09:04:24;2.08;;;1.15;;
37288;SDS011;23174;49.462;11.000;2023-09-19T09:06:26;1.50;;;1.02;;
37288;SDS011;23174;49.462;11.000;2023-09-19T09:08:28;1.08;;;0.93;;
37288;SDS011;23174;49.462;11.000;2023-09-19T09:10:31;1.95;;;1.23;;
37288;SDS011;23174;49.462;11.000;2023-09-19T09:12:31;1.02;;;0.93;;
37288;SDS011;23174;49.462;11.000;2023-09-19T09:14:32;2.47;;;1.52;;
37288;SDS011;23174;49.462;11.000;2023-09-19T09:16:34;2.28;;;1.10;;
37288;SDS011;23174;49.462;11.000;2023-09-19T09:18:34;3.13;;;1.27;;
37288;SDS011;23174;49.462;11.000;2023-09-19T09:20:35;1.60;;;1.00;;
37288;SDS011;23174;49.462;11.000;2023-09-19T09:22:36;1.20;;;1.10;;
37288;SDS011;23174;49.462;11.000;2023-09-19T09:24:50;2.53;;;1.38;;
37288;SDS011;23174;49.462;11.000;2023-09-19T09:26:53;1.75;;;1.17;;
37288;SDS011;23174;49.462;11.000;2023-09-19T09:28:54;1.70;;;1.08;;
37288;SDS011;23174;49.462;11.000;2023-09-19T09:30:55;1.33;;;0.80;;
37288;SDS011;23174;49.462;11.000;2023-09-19T09:33:30;1.70;;;0.98;;
37288;SDS011;23174;49.462;11.000;2023-09-19T09:35:24;4.90;;;1.33;;
37288;SDS011;23174;49.462;11.000;2023-09-19T09:37:25;3.28;;;1.10;;
37288;SDS011;23174;49.462;11.000;2023-09-19T09:39:31;1.83;;;1.10;;
37288;SDS011;23174;49.462;11.000;2023-09-19T09:41:36;1.88;;;1.00;;
37288;SDS011;23174;49.462;11.000;2023-09-19T09:43:38;2.38;;;1.20;;
37288;SDS011;23174;49.462;11.000;2023-09-19T09:45:40;1.38;;;1.15;;
37288;SDS011;23174;49.462;11.000;2023-09-19T09:47:48;1.70;;;1.08;;
37288;SDS011;23174;49.462;11.000;2023-09-19T09:49:55;2.08;;;1.13;;
37288;SDS011;23174;49.462;11.000;2023-09-19T09:52:07;3.35;;;1.02;;
37288;SDS011;23174;49.462;11.000;2023-09-19T09:54:17;2.15;;;1.10;;
37288;SDS011;23174;49.462;11.000;2023-09-19T09:56:21;1.98;;;1.13;;
37288;SDS011;23174;49.462;11.000;2023-09-19T09:58:22;3.03;;;1.25;;
37288;SDS011;23174;49.462;11.000;2023-09-19T10:00:28;2.53;;;1.08;;
37288;SDS011;23174;49.462;11.000;2023-09-19T10:02:42;2.60;;;1.15;;
37288;SDS011;23174;49.462;11.000;2023-09-19T10:04:46;1.70;;;1.20;;
37288;SDS011;23174;49.462;11.000;2023-09-19T10:06:58;1.50;;;1.40;;
37288;SDS011;23174;49.462;11.000;2023-09-19T10:09:06;3.50;;;1.13;;
37288;SDS011;23174;49.462;11.000;2023-09-19T10:11:16;2.00;;;1.27;;
37288;SDS011;23174;49.462;11.000;2023-09-19T10:13:18;1.15;;;1.00;;
37288;SDS011;23174;49.462;11.000;2023-09-19T10:15:23;1.80;;;1.00;;
37288;SDS011;23174;49.462;11.000;2023-09-19T10:17:29;3.03;;;1.00;;
37288;SDS011;23174;49.462;11.000;2023-09-19T10:19:36;2.70;;;1.13;;
37288;SDS011;23174;49.462;11.000;2023-09-19T10:21:46;2.58;;;1.27;;
37288;SDS011;23174;49.462;11.000;2023-09-19T10:23:48;1.85;;;1.27;;
37288;SDS011;23174;49.462;11.000;2023-09-19T10:25:52;1.35;;;1.10;;
37288;SDS011;23174;49.462;11.000;2023-09-19T10:27:53;2.38;;;1.00;;
37288;SDS011;23174;49.462;11.000;2023-09-19T10:29:55;3.25;;;1.20;;
37288;SDS011;23174;49.462;11.000;2023-09-19T10:31:57;1.95;;;1.20;;
37288;SDS011;23174;49.462;11.000;2023-09-19T10:34:00;2.85;;;1.40;;
37288;SDS011;23174;49.462;11.000;2023-09-19T10:36:04;2.30;;;1.30;;
37288;SDS011;23174;49.462;11.000;2023-09-19T10:38:05;2.65;;;1.42;;
37288;SDS011;23174;49.462;11.000;2023-09-19T10:40:08;2.90;;;1.20;;
37288;SDS011;23174;49.462;11.000;2023-09-19T10:42:08;2.58;;;1.00;;
37288;SDS011;23174;49.462;11.000;2023-09-19T10:44:15;1.80;;;1.33;;
37288;SDS011;23174;49.462;11.000;2023-09-19T10:46:23;4.32;;;1.30;;
37288;SDS011;23174;49.462;11.000;2023-09-19T10:48:25;3.28;;;2.00;;
37288;SDS011;23174;49.462;11.000;2023-09-19T10:50:26;1.60;;;1.25;;
37288;SDS011;23174;49.462;11.000;2023-09-19T10:52:31;2.30;;;1.30;;
37288;SDS011;23174;49.462;11.000;2023-09-19T10:54:34;2.20;;;1.10;;
37288;SDS011;23174;49.462;11.000;2023-09-19T10:56:42;1.25;;;1.10;;
37288;SDS011;23174;49.462;11.000;2023-09-19T10:58:46;3.55;;;1.35;;
37288;SDS011;23174;49.462;11.000;2023-09-19T11:00:50;2.92;;;1.60;;
37288;SDS011;23174;49.462;11.000;2023-09-19T11:05:11;4.22;;;1.40;;
37288;SDS011;23174;49.462;11.000;2023-09-19T11:07:13;1.33;;;1.20;;
37288;SDS011;23174;49.462;11.000;2023-09-19T11:09:15;1.88;;;1.20;;
37288;SDS011;23174;49.462;11.000;2023-09-19T11:14:14;6.40;;;1.65;;
37288;SDS011;23174;49.462;11.000;2023-09-19T11:16:24;1.30;;;1.20;;
37288;SDS011;23174;49.462;11.000;2023-09-19T11:20:40;4.40;;;1.20;;
37288;SDS011;23174;49.462;11.000;2023-09-19T11:24:53;1.90;;;0.90;;
37288;SDS011;23174;49.462;11.000;2023-09-19T11:27:10;2.08;;;1.35;;
37288;SDS011;23174;49.462;11.000;2023-09-19T11:29:32;3.75;;;1.23;;
37288;SDS011;23174;49.462;11.000;2023-09-19T11:31:43;3.25;;;1.40;;
37288;SDS011;23174;49.462;11.000;2023-09-19T11:33:44;2.67;;;1.27;;
37288;SDS011;23174;49.462;11.000;2023-09-19T11:38:02;4.55;;;1.15;;
37288;SDS011;23174;49.462;11.000;2023-09-19T11:40:07;7.45;;;1.73;;
37288;SDS011;23174;49.462;11.000;2023-09-19T11:42:40;5.22;;;1.95;;
37288;SDS011;23174;49.462;11.000;2023-09-19T11:44:42;2.30;;;1.50;;
37288;SDS011;23174;49.462;11.000;2023-09-19T11:48:51;4.43;;;1.30;;
37288;SDS011;23174;49.462;11.000;2023-09-19T11:50:51;4.70;;;1.73;;
37288;SDS011;23174;49.462;11.000;2023-09-19T11:52:53;1.65;;;1.33;;
37288;SDS011;23174;49.462;11.000;2023-09-19T11:54:55;1.33;;;1.10;;
37288;SDS011;23174;49.462;11.000;2023-09-19T11:56:57;2.10;;;0.90;;
37288;SDS011;23174;49.462;11.000;2023-09-19T11:58:59;1.80;;;0.88;;
37288;SDS011;23174;49.462;11.000;2023-09-19T12:01:00;1.63;;;1.20;;
37288;SDS011;23174;49.462;11.000;2023-09-19T12:03:08;6.55;;;1.15;;
37288;SDS011;23174;49.462;11.000;2023-09-19T12:05:10;5.45;;;0.98;;
37288;SDS011;23174;49.462;11.000;2023-09-19T12:07:11;1.10;;;0.98;;
37288;SDS011;23174;49.462;11.000;2023-09-19T12:09:19;1.40;;;0.90;;
37288;SDS011;23174;49.462;11.000;2023-09-19T12:11:21;3.30;;;0.90;;
37288;SDS011;23174;49.462;11.000;2023-09-19T12:13:23;1.38;;;0.70;;
37288;SDS011;23174;49.462;11.000;2023-09-19T12:15:24;1.48;;;0.93;;
37288;SDS011;23174;49.462;11.000;2023-09-19T12:17:35;1.15;;;0.93;;
37288;SDS011;23174;49.462;11.000;2023-09-19T12:19:36;3.22;;;1.30;;
37288;SDS011;23174;49.462;11.000;2023-09-19T12:21:36;1.73;;;1.17;;
37288;SDS011;23174;49.462;11.000;2023-09-19T12:23:37;2.17;;;1.23;;
37288;SDS011;23174;49.462;11.000;2023-09-19T12:25:41;1.73;;;1.00;;
37288;SDS011;23174;49.462;11.000;2023-09-19T12:27:47;2.17;;;1.10;;
37288;SDS011;23174;49.462;11.000;2023-09-19T12:29:52;2.47;;;1.10;;
37288;SDS011;23174;49.462;11.000;2023-09-19T12:31:59;1.70;;;1.20;;
37288;SDS011;23174;49.462;11.000;2023-09-19T12:34:03;1.85;;;1.15;;